createdAt,value
2019-06-10T00:00:26.777Z,98766.64
2019-06-10T00:03:02.865Z,98759.88
2019-06-10T00:05:36.018Z,98756.69
2019-06-10T00:08:12.032Z,98752.29
2019-06-10T00:10:45.129Z,98750.41
2019-06-10T00:13:20.940Z,98757.70
2019-06-10T00:15:56.662Z,98762.80
2019-06-10T00:18:41.499Z,98760.09
2019-06-10T00:21:07.061Z,98763.11
2019-06-10T00:23:42.076Z,98762.80
2019-06-10T00:26:15.879Z,98764.16
2019-06-10T00:28:51.321Z,98757.53
2019-06-10T00:31:25.270Z,98758.74
2019-06-10T00:34:01.322Z,98767.83
2019-06-10T00:36:34.627Z,98767.38
2019-06-10T00:39:13.113Z,98769.04
2019-06-10T00:41:44.773Z,98771.44
2019-06-10T00:44:20.527Z,98766.02
2019-06-10T00:46:54.170Z,98750.46
2019-06-10T00:49:27.979Z,98751.30
2019-06-10T00:52:04.189Z,98742.66
2019-06-10T00:54:37.755Z,98736.41
2019-06-10T00:57:12.381Z,98729.34
2019-06-10T00:59:47.197Z,98737.46
2019-06-10T01:02:21.464Z,98723.59
2019-06-10T01:04:55.291Z,98725.28
2019-06-10T01:07:31.138Z,98724.77
2019-06-10T01:10:05.094Z,98715.30
2019-06-10T01:12:40.694Z,98706.35
2019-06-10T01:15:15.290Z,98712.07
2019-06-10T01:17:51.128Z,98712.37
2019-06-10T01:20:24.748Z,98707.70
2019-06-10T01:22:58.441Z,98708.02
2019-06-10T01:25:32.185Z,98709.05
2019-06-10T01:28:05.955Z,98705.83
2019-06-10T01:30:41.280Z,98703.95
2019-06-10T01:33:16.418Z,98701.25
2019-06-10T01:35:51.465Z,98692.83
2019-06-10T01:38:25.407Z,98689.30
2019-06-10T01:41:01.330Z,98681.66
2019-06-10T01:43:34.847Z,98685.72
2019-06-10T01:46:11.323Z,98682.01
2019-06-10T01:48:48.144Z,98672.53
2019-06-10T01:51:21.302Z,98668.14
2019-06-10T01:53:55.603Z,98664.42
2019-06-10T01:56:31.341Z,98665.13
2019-06-10T01:59:04.823Z,98663.78
2019-06-10T02:01:57.393Z,98662.12
2019-06-10T02:04:32.081Z,98666.17
2019-06-10T02:07:06.182Z,98659.72
2019-06-10T02:09:41.090Z,98656.70
2019-06-10T02:12:17.554Z,98666.48
2019-06-10T02:14:50.959Z,98665.13
2019-06-10T02:17:24.671Z,98658.05
2019-06-10T02:20:00.982Z,98648.59
2019-06-10T02:22:33.997Z,98656.70
2019-06-10T02:25:07.871Z,98652.64
2019-06-10T02:27:41.672Z,98657.53
2019-06-10T02:30:29.777Z,98651.60
2019-06-10T02:32:52.380Z,98650.95
2019-06-10T02:35:38.734Z,98652.64
2019-06-10T02:38:03.517Z,98648.59
2019-06-10T02:40:37.545Z,98646.19
2019-06-10T02:43:17.462Z,98649.60
2019-06-10T02:45:48.806Z,98636.30
2019-06-10T02:48:30.141Z,98641.18
2019-06-10T02:51:07.638Z,98629.53
2019-06-10T02:53:43.372Z,98628.18
2019-06-10T02:56:17.757Z,98633.06
2019-06-10T02:58:53.527Z,98632.73
2019-06-10T03:01:32.560Z,98641.36
2019-06-10T03:04:04.500Z,98635.13
2019-06-10T03:06:40.254Z,98639.48
2019-06-10T03:09:14.377Z,98627.01
2019-06-10T03:11:48.586Z,98630.55
2019-06-10T03:14:25.278Z,98631.06
2019-06-10T03:17:03.163Z,98629.19
2019-06-10T03:19:46.881Z,98627.01
2019-06-10T03:22:13.117Z,98631.89
2019-06-10T03:24:47.058Z,98625.66
2019-06-10T03:27:23.151Z,98629.41
2019-06-10T03:29:56.359Z,98625.34
2019-06-10T03:32:36.562Z,98626.70
2019-06-10T03:35:06.168Z,98625.34
2019-06-10T03:37:42.223Z,98624.83
2019-06-10T03:40:16.487Z,98622.95
2019-06-10T03:42:52.017Z,98627.84
2019-06-10T03:45:27.200Z,98621.91
2019-06-10T03:48:03.757Z,98627.84
2019-06-10T03:50:37.385Z,98622.43
2019-06-10T03:53:12.851Z,98641.36
2019-06-10T03:55:46.953Z,98638.14
2019-06-10T03:58:22.063Z,98628.18
2019-06-10T04:00:56.391Z,98622.43
2019-06-10T04:03:30.027Z,98621.42
2019-06-10T04:06:04.099Z,98624.13
2019-06-10T04:08:37.943Z,98630.88
2019-06-10T04:11:12.251Z,98622.95
2019-06-10T04:13:46.352Z,98624.61
2019-06-10T04:16:22.261Z,98615.14
2019-06-10T04:18:55.818Z,98611.09
2019-06-10T04:21:29.644Z,98616.01
2019-06-10T04:24:03.421Z,98612.78
2019-06-10T04:26:38.179Z,98601.96
2019-06-10T04:29:12.930Z,98603.31
2019-06-10T04:31:46.885Z,98602.27
2019-06-10T04:34:23.762Z,98593.84
2019-06-10T04:36:55.980Z,98600.91
2019-06-10T04:39:29.831Z,98592.80
2019-06-10T04:42:03.570Z,98592.50
2019-06-10T04:44:37.381Z,98603.62
2019-06-10T04:47:12.083Z,98599.04
2019-06-10T04:49:45.869Z,98596.86
2019-06-10T04:52:21.237Z,98600.91
2019-06-10T04:54:55.259Z,98589.79
2019-06-10T04:57:29.648Z,98593.32
2019-06-10T05:00:11.011Z,98591.66
2019-06-10T05:02:38.971Z,98587.09
2019-06-10T05:05:13.207Z,98592.50
2019-06-10T05:07:47.418Z,98591.97
2019-06-10T05:10:23.697Z,98587.39
2019-06-10T05:12:56.849Z,98592.80
2019-06-10T05:15:34.151Z,98592.80
2019-06-10T05:18:06.734Z,98585.52
2019-06-10T05:20:52.004Z,98588.44
2019-06-10T05:23:16.085Z,98586.56
2019-06-10T05:25:52.274Z,98585.73
2019-06-10T05:28:25.993Z,98586.56
2019-06-10T05:31:02.807Z,98584.69
2019-06-10T05:33:36.251Z,98578.97
2019-06-10T05:36:09.914Z,98580.63
2019-06-10T05:38:43.797Z,98583.34
2019-06-10T05:41:17.737Z,98577.92
2019-06-10T05:43:52.444Z,98575.74
2019-06-10T05:46:27.312Z,98573.87
2019-06-10T05:49:03.103Z,98576.91
2019-06-10T05:51:37.121Z,98579.61
2019-06-10T05:54:12.786Z,98581.98
2019-06-10T05:56:46.703Z,98580.45
2019-06-10T05:59:22.611Z,98572.64
2019-06-10T06:01:56.131Z,98574.94
2019-06-10T06:04:32.584Z,98570.27
2019-06-10T06:07:05.636Z,98568.39
2019-06-10T06:09:39.527Z,98565.17
2019-06-10T06:12:14.284Z,98561.79
2019-06-10T06:14:48.249Z,98560.06
2019-06-10T06:17:23.603Z,98562.62
2019-06-10T06:19:57.755Z,98550.44
2019-06-10T06:22:34.317Z,98554.81
2019-06-10T06:25:07.810Z,98552.11
2019-06-10T06:27:42.365Z,98549.92
2019-06-10T06:30:18.938Z,98543.80
2019-06-10T06:32:53.338Z,98550.05
2019-06-10T06:35:28.457Z,98535.34
2019-06-10T06:38:02.688Z,98530.80
2019-06-10T06:40:37.590Z,98534.33
2019-06-10T06:43:12.571Z,98530.80
2019-06-10T06:45:46.384Z,98524.16
2019-06-10T06:48:22.603Z,98522.59
2019-06-10T06:51:03.988Z,98522.30
2019-06-10T06:53:39.556Z,98519.81
2019-06-10T06:56:07.134Z,98521.05
2019-06-10T06:58:43.236Z,98522.06
2019-06-10T07:01:17.261Z,98516.88
2019-06-10T07:03:53.585Z,98508.75
2019-06-10T07:06:27.776Z,98507.92
2019-06-10T07:09:07.744Z,98498.77
2019-06-10T07:11:39.859Z,98506.69
2019-06-10T07:14:14.967Z,98506.05
2019-06-10T07:16:48.942Z,98508.99
2019-06-10T07:19:22.791Z,98502.23
2019-06-10T07:22:08.742Z,98495.34
2019-06-10T07:24:36.009Z,98490.77
2019-06-10T07:27:08.575Z,98488.06
2019-06-10T07:29:46.929Z,98490.55
2019-06-10T07:32:18.468Z,98491.71
2019-06-10T07:34:52.827Z,98482.24
2019-06-10T07:37:26.829Z,98488.48
2019-06-10T07:40:02.908Z,98485.47
2019-06-10T07:42:37.462Z,98485.25
2019-06-10T07:45:13.193Z,98476.64
2019-06-10T07:47:47.223Z,98483.41
2019-06-10T07:50:22.681Z,98488.08
2019-06-10T07:52:58.670Z,98484.02
2019-06-10T07:55:33.337Z,98481.78
2019-06-10T07:58:08.597Z,98488.47
2019-06-10T08:00:46.479Z,98472.42
2019-06-10T08:03:19.294Z,98472.39
2019-06-10T08:05:54.975Z,98473.23
2019-06-10T08:08:29.069Z,98470.85
2019-06-10T08:11:03.655Z,98472.70
2019-06-10T08:13:37.678Z,98476.22
2019-06-10T08:16:13.066Z,98472.32
2019-06-10T08:19:16.138Z,98475.22
2019-06-10T08:21:23.781Z,98468.37
2019-06-10T08:23:57.815Z,98464.76
2019-06-10T08:26:32.423Z,98462.98
2019-06-10T08:29:06.701Z,98454.34
2019-06-10T08:31:43.661Z,98451.71
2019-06-10T08:34:16.754Z,98452.02
2019-06-10T08:36:54.189Z,98457.38
2019-06-10T08:39:26.868Z,98453.43
2019-06-10T08:42:03.146Z,98457.68
2019-06-10T08:44:36.833Z,98450.19
2019-06-10T08:47:12.426Z,98446.73
2019-06-10T08:49:49.029Z,98450.36
2019-06-10T08:52:23.732Z,98445.74
2019-06-10T08:54:57.971Z,98443.12
2019-06-10T08:57:33.499Z,98442.61
2019-06-10T09:00:12.558Z,98443.00
2019-06-10T09:02:48.360Z,98438.64
2019-06-10T09:05:23.255Z,98438.22
2019-06-10T09:07:57.093Z,98440.08
2019-06-10T09:10:33.777Z,98437.41
2019-06-10T09:13:07.403Z,98440.63
2019-06-10T09:15:43.767Z,98436.58
2019-06-10T09:18:20.074Z,98431.78
2019-06-10T09:20:55.989Z,98435.53
2019-06-10T09:23:29.373Z,98435.41
2019-06-10T09:26:05.080Z,98435.23
2019-06-10T09:28:45.034Z,98423.86
2019-06-10T09:31:15.992Z,98423.42
2019-06-10T09:33:53.390Z,98422.91
2019-06-10T09:36:25.446Z,98412.27
2019-06-10T09:38:59.118Z,98409.15
2019-06-10T09:41:40.068Z,98403.95
2019-06-10T09:44:08.532Z,98410.92
2019-06-10T09:46:45.879Z,98404.37
2019-06-10T09:49:19.052Z,98405.73
2019-06-10T09:51:57.364Z,98399.48
2019-06-10T09:54:29.874Z,98399.17
2019-06-10T09:57:03.955Z,98399.98
2019-06-10T09:59:37.747Z,98400.30
2019-06-10T10:02:12.568Z,98393.55
2019-06-10T10:04:50.521Z,98394.36
2019-06-10T10:07:22.636Z,98398.96
2019-06-10T10:09:57.483Z,98399.66
2019-06-10T10:12:33.156Z,98386.56
2019-06-10T10:15:23.296Z,98391.66
2019-06-10T10:17:50.763Z,98385.94
2019-06-10T10:20:24.037Z,98386.77
2019-06-10T10:22:57.767Z,98379.38
2019-06-10T10:25:32.820Z,98383.63
2019-06-10T10:28:09.487Z,98385.30
2019-06-10T10:30:46.029Z,98375.19
2019-06-10T10:33:19.095Z,98368.73
2019-06-10T10:35:52.803Z,98366.75
2019-06-10T10:38:26.633Z,98369.33
2019-06-10T10:41:04.202Z,98360.80
2019-06-10T10:43:37.840Z,98361.75
2019-06-10T10:46:13.975Z,98362.16
2019-06-10T10:48:47.132Z,98359.95
2019-06-10T10:51:23.059Z,98357.00
2019-06-10T10:54:19.013Z,98360.88
2019-06-10T10:56:33.974Z,98357.33
2019-06-10T10:59:07.414Z,98347.41
2019-06-10T11:01:43.745Z,98349.20
2019-06-10T11:04:16.996Z,98347.32
2019-06-10T11:06:54.401Z,98346.98
2019-06-10T11:09:26.938Z,98351.77
2019-06-10T11:12:03.376Z,98343.19
2019-06-10T11:14:36.215Z,98336.33
2019-06-10T11:17:09.975Z,98341.63
2019-06-10T11:19:43.735Z,98343.31
2019-06-10T11:22:17.389Z,98335.55
2019-06-10T11:24:53.581Z,98337.89
2019-06-10T11:27:26.602Z,98320.93
2019-06-10T11:30:02.432Z,98330.48
2019-06-10T11:32:36.311Z,98330.87
2019-06-10T11:35:12.187Z,98328.83
2019-06-10T11:37:46.749Z,98327.19
2019-06-10T11:40:22.415Z,98322.38
2019-06-10T11:42:59.481Z,98322.82
2019-06-10T11:45:32.849Z,98325.68
2019-06-10T11:48:07.012Z,98319.05
2019-06-10T11:50:42.833Z,98310.89
2019-06-10T11:53:17.673Z,98306.06
2019-06-10T11:55:51.785Z,98309.70
2019-06-10T11:58:25.719Z,98295.45
2019-06-10T12:01:03.064Z,98294.01
2019-06-10T12:03:35.779Z,98288.97
2019-06-10T12:06:09.617Z,98286.27
2019-06-10T12:08:43.907Z,98287.38
2019-06-10T12:11:17.835Z,98284.17
2019-06-10T12:13:53.229Z,98288.67
2019-06-10T12:19:03.704Z,98293.83
2019-06-10T12:21:37.502Z,98293.30
2019-06-10T12:24:22.883Z,98284.81
2019-06-10T12:26:58.378Z,98284.39
2019-06-10T12:29:31.314Z,98270.05
2019-06-10T12:32:07.389Z,98276.72
2019-06-10T12:34:40.721Z,98273.63
2019-06-10T12:37:15.909Z,98278.04
2019-06-10T12:39:49.895Z,98271.50
2019-06-10T12:42:23.934Z,98275.57
2019-06-10T12:44:58.910Z,98269.33
2019-06-10T12:47:33.424Z,98266.67
2019-06-10T12:50:07.820Z,98267.54
2019-06-10T12:52:41.641Z,98260.10
2019-06-10T12:55:16.323Z,98245.92
2019-06-10T12:57:52.163Z,98251.03
2019-06-10T13:00:26.517Z,98257.24
2019-06-10T13:03:03.733Z,98257.74
2019-06-10T13:05:35.937Z,98254.52
2019-06-10T13:08:09.731Z,98257.61
2019-06-10T13:10:43.675Z,98251.41
2019-06-10T13:13:17.727Z,98251.58
2019-06-10T13:15:53.153Z,98247.86
2019-06-10T13:18:26.907Z,98254.11
2019-06-10T13:21:07.290Z,98251.98
2019-06-10T13:23:36.376Z,98241.98
2019-06-10T13:26:15.076Z,98237.94
2019-06-10T13:28:45.480Z,98239.77
2019-06-10T13:31:19.313Z,98232.66
2019-06-10T13:33:53.107Z,98228.03
2019-06-10T13:36:26.971Z,98228.38
2019-06-10T13:39:03.974Z,98226.84
2019-06-10T13:41:36.248Z,98229.14
2019-06-10T13:44:15.203Z,98214.86
2019-06-10T13:46:46.638Z,98223.47
2019-06-10T13:49:25.181Z,98213.23
2019-06-10T13:51:56.005Z,98219.00
2019-06-10T13:54:30.856Z,98216.33
2019-06-10T13:57:06.595Z,98205.13
2019-06-10T13:59:42.954Z,98209.77
2019-06-10T14:02:15.598Z,98210.61
2019-06-10T14:04:49.420Z,98205.31
2019-06-10T14:07:23.457Z,98202.25
2019-06-10T14:09:58.353Z,98198.77
2019-06-10T14:12:32.450Z,98190.88
2019-06-10T14:15:09.356Z,98193.63
2019-06-10T14:17:42.470Z,98191.62
2019-06-10T14:20:17.699Z,98192.16
2019-06-10T14:22:52.998Z,98191.75
2019-06-10T14:25:26.825Z,98186.17
2019-06-10T14:28:03.208Z,98184.20
2019-06-10T14:30:36.230Z,98185.05
2019-06-10T14:33:16.660Z,98177.39
2019-06-10T14:35:49.992Z,98179.63
2019-06-10T14:38:23.905Z,98174.63
2019-06-10T14:40:57.660Z,98173.84
2019-06-10T14:43:33.159Z,98171.41
2019-06-10T14:46:07.414Z,98169.25
2019-06-10T14:48:42.666Z,98169.96
2019-06-10T14:51:17.261Z,98158.27
2019-06-10T14:53:51.172Z,98162.18
2019-06-10T14:56:24.862Z,98160.62
2019-06-10T14:58:58.675Z,98158.06
2019-06-10T15:01:32.883Z,98155.77
2019-06-10T15:04:07.863Z,98160.64
2019-06-10T15:06:43.216Z,98145.36
2019-06-10T15:09:19.833Z,98155.59
2019-06-10T15:11:55.369Z,98144.38
2019-06-10T15:14:29.187Z,98145.66
2019-06-10T15:17:03.038Z,98128.55
2019-06-10T15:19:36.663Z,98135.70
2019-06-10T15:22:12.632Z,98133.70
2019-06-10T15:24:46.130Z,98136.31
2019-06-10T15:27:27.551Z,98135.63
2019-06-10T15:29:55.419Z,98128.44
2019-06-10T15:32:34.669Z,98126.45
2019-06-10T15:35:04.974Z,98124.41
2019-06-10T15:37:38.646Z,98118.98
2019-06-10T15:40:14.028Z,98124.73
2019-06-10T15:42:47.932Z,98121.61
2019-06-10T15:45:23.120Z,98116.19
2019-06-10T15:47:56.962Z,98114.53
2019-06-10T15:50:32.366Z,98118.90
2019-06-10T15:53:06.293Z,98109.56
2019-06-10T15:56:09.230Z,98104.14
2019-06-10T15:58:17.377Z,98097.07
2019-06-10T16:00:54.336Z,98098.79
2019-06-10T16:03:28.119Z,98099.54
2019-06-10T16:06:03.203Z,98095.55
2019-06-10T16:08:38.307Z,98091.93
2019-06-10T16:11:15.406Z,98093.82
2019-06-10T16:13:47.688Z,98087.28
2019-06-10T16:16:21.445Z,98086.41
2019-06-10T16:18:55.419Z,98080.42
2019-06-10T16:21:30.156Z,98082.14
2019-06-10T16:24:03.816Z,98080.17
2019-06-10T16:26:37.554Z,98074.86
2019-06-10T16:29:12.282Z,98075.03
2019-06-10T16:31:46.097Z,98073.68
2019-06-10T16:34:21.239Z,98071.86
2019-06-10T16:36:55.334Z,98067.27
2019-06-10T16:39:28.961Z,98065.37
2019-06-10T16:42:03.175Z,98065.08
2019-06-10T16:44:38.414Z,98063.98
2019-06-10T16:47:12.580Z,98064.42
2019-06-10T16:49:47.608Z,98058.38
2019-06-10T16:52:25.657Z,98061.56
2019-06-10T16:54:59.278Z,98060.36
2019-06-10T16:57:35.205Z,98050.26
2019-06-10T17:00:11.995Z,98055.39
2019-06-10T17:02:44.886Z,98054.53
2019-06-10T17:05:18.575Z,98067.14
2019-06-10T17:07:52.741Z,98063.66
2019-06-10T17:10:28.238Z,98062.78
2019-06-10T17:13:04.584Z,98057.57
2019-06-10T17:15:38.264Z,98053.59
2019-06-10T17:18:13.110Z,98053.30
2019-06-10T17:20:47.409Z,98052.97
2019-06-10T17:23:28.057Z,98055.59
2019-06-10T17:26:01.946Z,98049.64
2019-06-10T17:28:37.044Z,98048.57
2019-06-10T17:31:11.057Z,98046.30
2019-06-10T17:33:44.834Z,98042.56
2019-06-10T17:36:18.618Z,98043.09
2019-06-10T17:38:52.893Z,98040.67
2019-06-10T17:41:29.327Z,98042.86
2019-06-10T17:44:02.734Z,98042.86
2019-06-10T17:46:36.454Z,98047.30
2019-06-10T17:49:13.088Z,98043.77
2019-06-10T17:51:46.727Z,98047.01
2019-06-10T17:54:22.508Z,98042.86
2019-06-10T17:56:55.995Z,98041.79
2019-06-10T17:59:30.893Z,98034.72
2019-06-10T18:02:05.319Z,98037.96
2019-06-10T18:04:38.996Z,98033.53
2019-06-10T18:07:13.189Z,98035.66
2019-06-10T18:09:47.015Z,98032.34
2019-06-10T18:12:22.404Z,98037.47
2019-06-10T18:14:57.571Z,98038.83
2019-06-10T18:17:34.796Z,98038.42
2019-06-10T18:20:08.223Z,98036.53
2019-06-10T18:22:41.985Z,98039.48
2019-06-10T18:25:15.741Z,98040.60
2019-06-10T18:27:49.636Z,98042.28
2019-06-10T18:30:23.557Z,98040.92
2019-06-10T18:32:57.199Z,98041.22
2019-06-10T18:35:34.135Z,98038.42
2019-06-10T18:38:06.605Z,98040.31
2019-06-10T18:40:42.848Z,98036.23
2019-06-10T18:43:18.260Z,98030.44
2019-06-10T18:45:53.233Z,98027.41
2019-06-10T18:48:29.040Z,98024.78
2019-06-10T18:51:03.169Z,98030.20
2019-06-10T18:53:37.090Z,98031.56
2019-06-10T18:56:13.006Z,98028.55
2019-06-10T18:58:46.991Z,98027.73
2019-06-10T19:01:22.663Z,98026.37
2019-06-10T19:03:56.348Z,98026.87
2019-06-10T19:06:31.294Z,98023.58
2019-06-10T19:09:07.154Z,98026.20
2019-06-10T19:11:43.107Z,98030.56
2019-06-10T19:14:16.473Z,98034.10
2019-06-10T19:16:52.284Z,98037.14
2019-06-10T19:19:25.747Z,98034.87
2019-06-10T19:22:06.206Z,98031.39
2019-06-10T19:24:36.725Z,98031.72
2019-06-10T19:27:10.530Z,98033.07
2019-06-10T19:29:50.746Z,98040.14
2019-06-10T19:32:19.896Z,98039.70
2019-06-10T19:34:53.910Z,98037.30
2019-06-10T19:37:27.702Z,98035.01
2019-06-10T19:40:01.460Z,98044.50
2019-06-10T19:42:35.985Z,98040.97
2019-06-10T19:45:12.521Z,98040.31
2019-06-10T19:47:46.844Z,98045.12
2019-06-10T19:50:21.045Z,98045.56
2019-06-10T19:52:54.930Z,98053.34
2019-06-10T19:55:28.566Z,98055.92
2019-06-10T19:58:03.665Z,98060.52
2019-06-10T20:00:37.816Z,98058.19
2019-06-10T20:03:12.034Z,98068.95
2019-06-10T20:05:47.140Z,98064.51
2019-06-10T20:08:22.673Z,98069.41
2019-06-10T20:10:56.714Z,98065.45
2019-06-10T20:13:32.430Z,98069.44
2019-06-10T20:16:06.089Z,98061.46
2019-06-10T20:18:40.508Z,98066.56
2019-06-10T20:21:15.656Z,98063.55
2019-06-10T20:23:49.324Z,98072.75
2019-06-10T20:26:23.196Z,98069.42
2019-06-10T20:28:56.848Z,98074.61
2019-06-10T20:31:32.529Z,98075.55
2019-06-10T20:34:06.111Z,98073.42
2019-06-10T20:36:42.444Z,98072.59
2019-06-10T20:39:15.650Z,98074.28
2019-06-10T20:41:52.379Z,98072.39
2019-06-10T20:44:24.917Z,98079.70
2019-06-10T20:46:58.680Z,98076.05
2019-06-10T20:49:34.270Z,98073.88
2019-06-10T20:52:12.353Z,98071.48
2019-06-10T20:54:46.432Z,98070.63
2019-06-10T20:57:19.266Z,98068.53
2019-06-10T20:59:53.138Z,98065.61
2019-06-10T21:02:26.981Z,98063.48
2019-06-10T21:05:02.773Z,98056.29
2019-06-10T21:07:36.239Z,98062.49
2019-06-10T21:10:10.192Z,98056.41
2019-06-10T21:12:44.908Z,98063.63
2019-06-10T21:15:19.595Z,98065.19
2019-06-10T21:17:53.438Z,98061.95
2019-06-10T21:20:27.310Z,98063.54
2019-06-10T21:23:03.034Z,98068.11
2019-06-10T21:25:36.528Z,98065.63
2019-06-10T21:28:12.978Z,98072.09
2019-06-10T21:30:53.383Z,98073.97
2019-06-10T21:33:23.510Z,98068.55
2019-06-10T21:35:59.164Z,98062.84
2019-06-10T21:38:32.962Z,98069.61
2019-06-10T21:41:06.780Z,98070.64
2019-06-10T21:43:42.514Z,98063.37
2019-06-10T21:46:15.958Z,98059.80
2019-06-10T21:48:50.569Z,98055.44
2019-06-10T21:51:24.363Z,98059.80
2019-06-10T21:53:58.457Z,98056.80
2019-06-10T21:56:32.946Z,98057.86
2019-06-10T21:59:06.868Z,98056.50
2019-06-10T22:01:42.959Z,98060.86
2019-06-10T22:04:16.278Z,98059.42
2019-06-10T22:06:52.907Z,98060.03
2019-06-10T22:09:25.934Z,98057.03
2019-06-10T22:11:59.699Z,98055.88
2019-06-10T22:14:33.422Z,98045.25
2019-06-10T22:17:07.415Z,98048.49
2019-06-10T22:19:42.732Z,98048.20
2019-06-10T22:22:16.653Z,98055.27
2019-06-10T22:24:51.296Z,98056.33
2019-06-10T22:27:26.048Z,98061.43
2019-06-10T22:30:02.688Z,98059.58
2019-06-10T22:32:35.514Z,98061.96
2019-06-10T22:35:09.375Z,98063.02
2019-06-10T22:37:43.424Z,98054.06
2019-06-10T22:40:17.152Z,98055.42
2019-06-10T22:42:53.684Z,98049.14
2019-06-10T22:45:26.480Z,98051.03
2019-06-10T22:48:02.775Z,98043.96
2019-06-10T22:50:35.905Z,98038.25
2019-06-10T22:53:12.096Z,98040.34
2019-06-10T22:55:45.166Z,98043.34
2019-06-10T22:58:18.919Z,98044.70
2019-06-10T23:00:56.232Z,98046.79
2019-06-10T23:03:29.141Z,98037.01
2019-06-10T23:06:04.773Z,98038.89
2019-06-10T23:08:38.543Z,98042.72
2019-06-10T23:11:12.995Z,98040.02
2019-06-10T23:13:47.172Z,98046.50
2019-06-10T23:16:22.244Z,98044.94
2019-06-10T23:18:57.168Z,98049.00
2019-06-10T23:21:31.581Z,98049.00
2019-06-10T23:24:05.363Z,98057.13
2019-06-10T23:26:39.176Z,98059.31
2019-06-10T23:29:13.092Z,98064.41
2019-06-10T23:31:53.997Z,98061.61
2019-06-10T23:34:23.220Z,98069.62
2019-06-10T23:36:58.758Z,98071.51
2019-06-10T23:39:33.591Z,98061.20
2019-06-10T23:42:07.586Z,98060.34
2019-06-10T23:44:41.376Z,98054.62
2019-06-10T23:47:15.231Z,98057.05
2019-06-10T23:49:49.176Z,98056.42
2019-06-10T23:52:22.924Z,98058.81
2019-06-10T23:54:57.900Z,98057.16
2019-06-10T23:57:32.937Z,98056.87
